Terminal Aerodrome Forecast
Issued by NWS

Home | Current Version | Previous Version | Text Only | Print | Product List | Glossary On
Versions: 1 2 3 4 5 6 7 8 9 10 11 12 13 14 15 16 17 18 19 20 21 22 23
000
FTUS42 KFFC 010949 AAD
TAFFTY
TAF AMD
KFTY 010949Z 0110/0206 00000KT 2SM BR BKN005
      TEMPO 0110/0112 1/2SM FG
     FM011400 21004KT P6SM BKN015
     FM011600 23007KT P6SM VCSH BKN025
     FM011700 23009KT 4SM -TSRA BKN030CB
     FM012000 23006KT P6SM VCSH OVC040=

USA.gov is the U.S. government's official web portal to all federal, state and local government web resources and services.